createdAt,value
2022-11-06T00:00:48.760Z,60.07
2022-11-06T00:03:20.595Z,60.03
2022-11-06T00:06:10.291Z,59.96
2022-11-06T00:08:43.071Z,59.88
2022-11-06T00:11:18.524Z,59.67
2022-11-06T00:13:52.463Z,59.51
2022-11-06T00:16:24.483Z,57.64
2022-11-06T00:18:57.240Z,57.25
2022-11-06T00:21:30.911Z,59.28
2022-11-06T00:24:03.954Z,63.36
2022-11-06T00:26:36.573Z,65.88
2022-11-06T00:29:09.666Z,64.96
2022-11-06T00:31:41.525Z,63.97
2022-11-06T00:34:13.439Z,63.25
2022-11-06T00:36:45.198Z,62.66
2022-11-06T00:39:17.049Z,62.18
2022-11-06T00:41:48.794Z,61.85
2022-11-06T00:44:20.698Z,61.51
2022-11-06T00:46:52.524Z,61.08
2022-11-06T00:49:24.304Z,60.66
2022-11-06T00:51:56.146Z,60.56
2022-11-06T00:54:27.934Z,60.36
2022-11-06T00:56:59.986Z,60.36
2022-11-06T00:59:31.978Z,60.32
2022-11-06T01:02:03.797Z,59.93
2022-11-06T01:04:35.685Z,59.64
2022-11-06T01:07:07.439Z,58.07
2022-11-06T01:09:39.887Z,57.39
2022-11-06T01:12:13.749Z,58.42
2022-11-06T01:14:46.550Z,62.70
2022-11-06T01:17:18.458Z,65.69
2022-11-06T01:19:50.200Z,64.73
2022-11-06T01:22:22.031Z,63.34
2022-11-06T01:24:53.988Z,62.47
2022-11-06T01:27:26.974Z,61.96
2022-11-06T01:29:59.308Z,61.39
2022-11-06T01:32:31.846Z,60.89
2022-11-06T01:35:03.566Z,60.55
2022-11-06T01:37:35.617Z,60.18
2022-11-06T01:40:08.562Z,59.75
2022-11-06T01:42:40.302Z,57.86
2022-11-06T01:45:27.364Z,57.11
2022-11-06T01:47:59.881Z,57.61
2022-11-06T01:50:32.081Z,59.75
2022-11-06T01:53:03.959Z,64.23
2022-11-06T01:55:40.401Z,66.84
2022-11-06T01:58:16.155Z,65.99
2022-11-06T02:00:49.829Z,64.54
2022-11-06T02:03:21.909Z,63.20
2022-11-06T02:05:54.279Z,62.05
2022-11-06T02:08:26.881Z,61.31
2022-11-06T02:10:58.948Z,60.69
2022-11-06T02:13:38.818Z,60.23
2022-11-06T02:16:19.067Z,59.96
2022-11-06T02:19:03.234Z,59.77
2022-11-06T02:22:08.020Z,57.64
2022-11-06T02:24:56.421Z,56.89
2022-11-06T02:27:30.850Z,58.42
2022-11-06T02:30:06.854Z,63.24
2022-11-06T02:32:43.104Z,66.16
2022-11-06T02:35:23.269Z,64.77
2022-11-06T02:38:00.203Z,63.48
2022-11-06T02:40:35.265Z,62.74
2022-11-06T02:43:09.627Z,61.94
2022-11-06T02:45:48.773Z,61.59
2022-11-06T02:48:24.940Z,61.24
2022-11-06T02:50:59.920Z,60.64
2022-11-06T02:53:34.122Z,60.26
2022-11-06T02:56:10.237Z,60.02
2022-11-06T02:58:49.049Z,59.86
2022-11-06T03:01:28.355Z,59.77
2022-11-06T03:04:05.628Z,59.74
2022-11-06T03:06:43.885Z,57.79
2022-11-06T03:09:20.409Z,57.45
2022-11-06T03:11:57.462Z,59.22
2022-11-06T03:14:35.160Z,63.86
2022-11-06T03:17:15.452Z,66.20
2022-11-06T03:19:53.358Z,65.06
2022-11-06T03:22:31.635Z,63.69
2022-11-06T03:25:14.862Z,62.81
2022-11-06T03:27:57.442Z,62.06
2022-11-06T03:30:30.143Z,61.42
2022-11-06T03:33:10.490Z,60.58
2022-11-06T03:35:45.693Z,60.34
2022-11-06T03:38:23.845Z,60.06
2022-11-06T03:40:59.545Z,59.99
2022-11-06T03:43:36.666Z,59.80
2022-11-06T03:46:13.351Z,59.74
2022-11-06T03:48:49.075Z,57.93
2022-11-06T03:51:25.027Z,56.86
2022-11-06T03:54:01.376Z,58.09
2022-11-06T03:56:38.215Z,59.68
2022-11-06T03:59:12.342Z,64.49
2022-11-06T04:01:47.952Z,67.32
2022-11-06T04:04:24.645Z,65.84
2022-11-06T04:07:01.699Z,64.45
2022-11-06T04:09:56.810Z,63.46
2022-11-06T04:13:00.183Z,62.53
2022-11-06T04:15:35.068Z,62.05
2022-11-06T04:18:15.710Z,61.46
2022-11-06T04:21:12.812Z,60.72
2022-11-06T04:24:12.988Z,60.18
2022-11-06T04:26:53.567Z,57.53
2022-11-06T04:29:42.016Z,56.78
2022-11-06T04:32:19.630Z,58.30
2022-11-06T04:35:00.704Z,60.81
2022-11-06T04:37:40.740Z,65.31
2022-11-06T04:40:18.474Z,67.78
2022-11-06T04:42:55.864Z,65.97
2022-11-06T04:45:32.611Z,64.24
2022-11-06T04:48:06.711Z,63.15
2022-11-06T04:50:44.417Z,62.49
2022-11-06T04:53:18.722Z,62.02
2022-11-06T04:55:56.199Z,61.38
2022-11-06T04:58:28.236Z,60.66
2022-11-06T05:01:00.215Z,60.22
2022-11-06T05:03:32.560Z,59.64
2022-11-06T05:06:04.566Z,57.72
2022-11-06T05:08:36.314Z,56.68
2022-11-06T05:11:08.288Z,58.06
2022-11-06T05:13:40.215Z,60.02
2022-11-06T05:16:11.976Z,64.46
2022-11-06T05:18:43.961Z,67.17
2022-11-06T05:21:33.707Z,65.64
2022-11-06T05:24:06.464Z,64.17
2022-11-06T05:26:38.463Z,62.91
2022-11-06T05:29:11.795Z,62.04
2022-11-06T05:31:43.872Z,61.22
2022-11-06T05:34:15.851Z,60.54
2022-11-06T05:36:47.593Z,59.91
2022-11-06T05:39:19.349Z,57.84
2022-11-06T05:41:51.080Z,57.07
2022-11-06T05:44:23.116Z,57.96
2022-11-06T05:46:55.010Z,59.23
2022-11-06T05:49:27.407Z,64.32
2022-11-06T05:51:59.357Z,66.82
2022-11-06T05:54:31.351Z,65.24
2022-11-06T05:57:03.236Z,63.50
2022-11-06T05:59:35.141Z,62.23
2022-11-06T06:02:07.217Z,61.27
2022-11-06T06:04:39.372Z,60.54
2022-11-06T06:07:11.386Z,59.84
2022-11-06T06:09:43.590Z,57.66
2022-11-06T06:12:16.033Z,56.91
2022-11-06T06:14:50.497Z,58.10
2022-11-06T06:17:22.538Z,59.01
2022-11-06T06:19:54.584Z,63.32
2022-11-06T06:22:26.472Z,66.31
2022-11-06T06:24:58.722Z,64.93
2022-11-06T06:27:31.255Z,63.44
2022-11-06T06:30:03.418Z,62.17
2022-11-06T06:32:35.695Z,61.28
2022-11-06T06:35:08.817Z,60.66
2022-11-06T06:37:40.648Z,59.90
2022-11-06T06:40:14.107Z,57.66
2022-11-06T06:42:46.711Z,57.00
2022-11-06T06:45:18.901Z,58.43
2022-11-06T06:47:50.694Z,59.52
2022-11-06T06:50:22.682Z,63.41
2022-11-06T06:52:58.056Z,66.31
2022-11-06T06:55:30.513Z,65.27
2022-11-06T06:58:03.198Z,63.87
2022-11-06T07:00:35.337Z,62.83
2022-11-06T07:03:07.197Z,61.95
2022-11-06T07:05:39.808Z,61.10
2022-11-06T07:08:12.418Z,60.30
2022-11-06T07:10:44.830Z,59.85
2022-11-06T07:13:16.746Z,57.95
2022-11-06T07:15:48.588Z,56.92
2022-11-06T07:18:20.518Z,58.18
2022-11-06T07:20:52.726Z,59.54
2022-11-06T07:23:24.611Z,63.56
2022-11-06T07:25:56.704Z,66.22
2022-11-06T07:28:28.468Z,65.23
2022-11-06T07:31:02.659Z,63.56
2022-11-06T07:33:34.981Z,62.37
2022-11-06T07:36:09.632Z,60.99
2022-11-06T07:38:43.874Z,60.44
2022-11-06T07:41:17.009Z,58.11
2022-11-06T07:43:51.926Z,56.59
2022-11-06T07:46:23.730Z,58.04
2022-11-06T07:48:55.847Z,59.58
2022-11-06T07:51:27.816Z,64.03
2022-11-06T07:53:59.581Z,66.49
2022-11-06T07:56:31.665Z,65.07
2022-11-06T07:59:03.522Z,63.32
2022-11-06T08:01:35.501Z,62.17
2022-11-06T08:04:07.548Z,60.39
2022-11-06T08:06:39.692Z,58.08
2022-11-06T08:09:12.209Z,57.25
2022-11-06T08:11:44.308Z,58.95
2022-11-06T08:14:16.179Z,60.79
2022-11-06T08:16:48.091Z,64.29
2022-11-06T08:19:19.819Z,66.97
2022-11-06T08:21:52.131Z,65.43
2022-11-06T08:24:24.023Z,63.78
2022-11-06T08:26:55.929Z,61.80
2022-11-06T08:29:27.881Z,60.44
2022-11-06T08:31:59.742Z,58.32
2022-11-06T08:34:35.113Z,57.79
2022-11-06T08:37:06.936Z,59.32
2022-11-06T08:39:38.693Z,63.55
2022-11-06T08:42:10.615Z,65.52
2022-11-06T08:44:43.406Z,64.15
2022-11-06T08:47:15.300Z,62.57
2022-11-06T08:49:47.034Z,61.12
2022-11-06T08:52:19.068Z,60.61
2022-11-06T08:54:50.906Z,60.15
2022-11-06T08:57:22.825Z,57.90
2022-11-06T08:59:55.219Z,57.22
2022-11-06T09:02:27.255Z,58.61
2022-11-06T09:04:59.318Z,59.72
2022-11-06T09:07:31.040Z,63.94
2022-11-06T09:10:02.996Z,66.53
2022-11-06T09:12:34.807Z,65.05
2022-11-06T09:15:07.715Z,62.50
2022-11-06T09:17:45.165Z,60.77
2022-11-06T09:20:18.962Z,57.65
2022-11-06T09:22:51.865Z,56.43
2022-11-06T09:25:23.929Z,57.40
2022-11-06T09:27:59.401Z,58.72
2022-11-06T09:30:33.306Z,59.87
2022-11-06T09:33:12.262Z,64.09
2022-11-06T09:35:45.286Z,66.46
2022-11-06T09:38:17.357Z,64.22
2022-11-06T09:40:53.623Z,61.59
2022-11-06T09:46:43.657Z,57.05
2022-11-06T09:49:24.154Z,56.83
2022-11-06T09:52:03.501Z,57.94
2022-11-06T09:54:39.077Z,59.70
2022-11-06T09:57:17.118Z,63.74
2022-11-06T09:59:50.158Z,65.74
2022-11-06T10:02:32.043Z,64.20
2022-11-06T10:05:14.314Z,62.96
2022-11-06T10:07:47.410Z,61.41
2022-11-06T10:10:24.703Z,60.26
2022-11-06T10:13:13.657Z,57.91
2022-11-06T10:15:54.536Z,57.01
2022-11-06T10:18:41.661Z,58.06
2022-11-06T10:21:22.077Z,59.27
2022-11-06T10:23:59.585Z,63.74
2022-11-06T10:26:39.580Z,66.06
2022-11-06T10:29:27.834Z,64.31
2022-11-06T10:32:15.272Z,62.86
2022-11-06T10:34:50.796Z,61.22
2022-11-06T10:37:27.840Z,60.44
2022-11-06T10:40:00.938Z,58.12
2022-11-06T10:42:38.499Z,57.00
2022-11-06T10:45:16.107Z,57.59
2022-11-06T10:47:53.157Z,59.38
2022-11-06T10:50:33.147Z,63.02
2022-11-06T10:53:10.128Z,65.11
2022-11-06T10:56:10.880Z,62.81
2022-11-06T10:58:43.475Z,61.48
2022-11-06T11:01:17.282Z,60.03
2022-11-06T11:03:50.922Z,57.21
2022-11-06T11:06:22.738Z,56.56
2022-11-06T11:08:55.163Z,57.44
2022-11-06T11:11:29.280Z,58.36
2022-11-06T11:14:15.993Z,60.08
2022-11-06T11:16:48.915Z,64.66
2022-11-06T11:19:34.470Z,66.19
2022-11-06T11:22:18.571Z,64.65
2022-11-06T11:25:03.672Z,63.00
2022-11-06T11:27:45.089Z,62.09
2022-11-06T11:30:26.434Z,61.16
2022-11-06T11:32:59.754Z,58.28
2022-11-06T11:35:34.761Z,57.21
2022-11-06T11:38:15.607Z,58.57
2022-11-06T11:40:47.944Z,60.02
2022-11-06T11:43:25.444Z,64.24
2022-11-06T11:46:15.717Z,66.11
2022-11-06T11:48:49.548Z,64.45
2022-11-06T11:51:35.062Z,62.35
2022-11-06T11:54:23.597Z,60.94
2022-11-06T11:57:06.881Z,60.59
2022-11-06T11:59:45.567Z,57.66
2022-11-06T12:02:26.883Z,56.88
2022-11-06T12:05:01.892Z,58.11
2022-11-06T12:07:37.482Z,59.80
2022-11-06T12:10:28.015Z,63.68
2022-11-06T12:13:02.498Z,66.11
2022-11-06T12:15:42.513Z,64.21
2022-11-06T12:18:17.974Z,62.06
2022-11-06T12:20:58.716Z,61.48
2022-11-06T12:23:34.363Z,60.58
2022-11-06T12:26:10.550Z,60.01
2022-11-06T12:28:46.675Z,59.97
2022-11-06T12:31:21.909Z,58.01
2022-11-06T12:34:06.069Z,57.31
2022-11-06T12:36:45.267Z,58.68
2022-11-06T12:39:23.881Z,60.33
2022-11-06T12:41:58.223Z,65.19
2022-11-06T12:44:30.138Z,66.38
2022-11-06T12:47:07.275Z,64.48
2022-11-06T12:50:04.607Z,62.84
2022-11-06T12:52:52.758Z,60.62
2022-11-06T12:55:30.688Z,60.09
2022-11-06T12:58:19.128Z,60.37
2022-11-06T13:01:02.001Z,57.70
2022-11-06T13:03:50.240Z,56.88
2022-11-06T13:06:31.848Z,58.68
2022-11-06T13:09:10.755Z,60.98
2022-11-06T13:11:49.675Z,64.92
2022-11-06T13:14:29.790Z,66.44
2022-11-06T13:17:07.191Z,65.02
2022-11-06T13:19:48.642Z,63.76
2022-11-06T13:22:30.156Z,62.20
2022-11-06T13:25:12.242Z,61.55
2022-11-06T13:27:49.663Z,61.28
2022-11-06T13:30:24.437Z,61.47
2022-11-06T13:33:06.354Z,61.21
2022-11-06T13:35:41.028Z,61.09
2022-11-06T13:38:18.335Z,60.98
2022-11-06T13:40:54.789Z,60.97
2022-11-06T13:43:34.728Z,60.45
2022-11-06T13:46:16.167Z,60.75
2022-11-06T13:49:00.970Z,60.90
2022-11-06T13:51:43.813Z,60.80
2022-11-06T13:54:25.871Z,61.00
2022-11-06T13:57:23.579Z,60.47
2022-11-06T14:00:20.601Z,60.35
2022-11-06T14:03:37.164Z,60.12
2022-11-06T14:06:12.026Z,60.04
2022-11-06T14:08:47.351Z,59.97
2022-11-06T14:11:21.745Z,60.16
2022-11-06T14:14:04.675Z,60.26
2022-11-06T14:16:39.572Z,60.28
2022-11-06T14:19:15.757Z,60.51
2022-11-06T14:21:53.645Z,60.58
2022-11-06T14:24:42.698Z,60.48
2022-11-06T14:27:35.542Z,60.78
2022-11-06T14:30:19.066Z,61.25
2022-11-06T14:32:52.756Z,61.24
2022-11-06T14:35:53.719Z,61.00
2022-11-06T14:38:45.360Z,61.15
2022-11-06T14:41:58.617Z,61.65
2022-11-06T14:44:47.435Z,62.33
2022-11-06T14:47:37.585Z,61.62
2022-11-06T14:50:26.061Z,61.39
2022-11-06T14:53:00.545Z,60.64
2022-11-06T14:55:36.120Z,60.19
2022-11-06T14:58:22.492Z,60.14
2022-11-06T15:00:57.780Z,60.00
2022-11-06T15:03:36.001Z,60.35
2022-11-06T15:06:22.443Z,60.59
2022-11-06T15:09:07.235Z,61.02
2022-11-06T15:11:57.625Z,61.15
2022-11-06T15:14:57.353Z,61.38
2022-11-06T15:17:36.448Z,61.38
2022-11-06T15:20:29.185Z,61.19
2022-11-06T15:23:14.636Z,60.94
2022-11-06T15:25:57.933Z,60.81
2022-11-06T15:28:35.108Z,60.94
2022-11-06T15:31:09.557Z,61.15
2022-11-06T15:33:52.943Z,61.23
2022-11-06T15:36:29.620Z,61.41
2022-11-06T15:39:02.229Z,61.57
2022-11-06T15:41:34.117Z,61.42
2022-11-06T15:44:06.452Z,61.53
2022-11-06T15:46:38.388Z,61.57
2022-11-06T15:49:17.342Z,61.07
2022-11-06T15:51:55.603Z,61.07
2022-11-06T15:54:44.009Z,61.41
2022-11-06T15:57:21.435Z,61.11
2022-11-06T16:00:07.579Z,60.82
2022-11-06T16:02:50.859Z,60.99
2022-11-06T16:05:23.193Z,61.56
2022-11-06T16:07:55.415Z,61.46
2022-11-06T16:10:28.442Z,60.88
2022-11-06T16:13:01.016Z,60.56
2022-11-06T16:15:55.053Z,60.18
2022-11-06T16:18:30.827Z,59.79
2022-11-06T16:21:10.272Z,59.82
2022-11-06T16:23:45.638Z,59.84
2022-11-06T16:26:22.710Z,58.19
2022-11-06T16:28:57.249Z,57.53
2022-11-06T16:31:30.831Z,59.02
2022-11-06T16:34:04.940Z,63.39
2022-11-06T16:39:49.717Z,64.87
2022-11-06T16:42:28.447Z,63.82
2022-11-06T16:45:20.194Z,62.90
2022-11-06T16:48:34.666Z,62.13
2022-11-06T16:51:12.079Z,61.54
2022-11-06T16:53:56.146Z,61.00
2022-11-06T16:56:32.044Z,60.66
2022-11-06T16:59:08.831Z,60.46
2022-11-06T17:01:42.397Z,60.74
2022-11-06T17:04:23.895Z,60.76
2022-11-06T17:06:57.305Z,60.57
2022-11-06T17:09:34.051Z,60.47
2022-11-06T17:12:10.985Z,60.48
2022-11-06T17:14:47.493Z,60.40
2022-11-06T17:17:28.438Z,60.33
2022-11-06T17:20:01.182Z,60.29
2022-11-06T17:22:33.294Z,60.23
2022-11-06T17:25:06.108Z,60.35
2022-11-06T17:27:38.022Z,60.41
2022-11-06T17:30:16.030Z,60.49
2022-11-06T17:32:48.652Z,60.66
2022-11-06T17:35:20.876Z,60.64
2022-11-06T17:37:52.732Z,60.48
2022-11-06T17:40:24.898Z,60.14
2022-11-06T17:42:56.814Z,59.69
2022-11-06T17:45:29.228Z,59.67
2022-11-06T17:48:01.341Z,59.85
2022-11-06T17:50:55.131Z,59.93
2022-11-06T17:53:27.892Z,60.08
2022-11-06T17:56:03.190Z,59.91
2022-11-06T17:58:35.772Z,59.76
2022-11-06T18:01:10.379Z,59.81
2022-11-06T18:03:45.616Z,59.95
2022-11-06T18:06:18.810Z,59.62
2022-11-06T18:08:50.845Z,59.59
2022-11-06T18:11:22.729Z,59.53
2022-11-06T18:13:56.483Z,59.61
2022-11-06T18:16:32.408Z,57.78
2022-11-06T18:19:06.770Z,57.28
2022-11-06T18:21:39.442Z,59.11
2022-11-06T18:24:13.722Z,63.58
2022-11-06T18:26:46.097Z,66.26
2022-11-06T18:29:18.569Z,65.11
2022-11-06T18:31:50.466Z,63.98
2022-11-06T18:34:22.700Z,63.12
2022-11-06T18:36:54.685Z,62.74
2022-11-06T18:39:26.535Z,62.31
2022-11-06T18:42:00.328Z,61.82
2022-11-06T18:44:35.138Z,61.42
2022-11-06T18:47:07.159Z,60.92
2022-11-06T18:49:39.114Z,60.77
2022-11-06T18:52:11.305Z,60.95
2022-11-06T18:54:43.467Z,61.11
2022-11-06T18:57:16.060Z,60.90
2022-11-06T18:59:48.285Z,60.71
2022-11-06T19:02:20.338Z,60.51
2022-11-06T19:04:52.832Z,60.06
2022-11-06T19:07:24.974Z,59.84
2022-11-06T19:09:56.835Z,59.75
2022-11-06T19:12:29.047Z,59.50
2022-11-06T19:15:01.571Z,58.05
2022-11-06T19:17:33.818Z,57.94
2022-11-06T19:20:10.826Z,59.77
2022-11-06T19:22:49.632Z,64.48
2022-11-06T19:25:22.321Z,66.49
2022-11-06T19:27:57.865Z,64.87
2022-11-06T19:30:30.339Z,63.48
2022-11-06T19:33:03.949Z,62.78
2022-11-06T19:35:36.840Z,62.31
2022-11-06T19:38:09.036Z,62.18
2022-11-06T19:40:41.215Z,61.86
2022-11-06T19:43:13.516Z,61.80
2022-11-06T19:45:47.544Z,61.81
2022-11-06T19:48:19.753Z,61.78
2022-11-06T19:51:00.485Z,61.83
2022-11-06T19:53:33.033Z,61.84
2022-11-06T19:56:09.518Z,61.77
2022-11-06T19:58:41.588Z,61.55
2022-11-06T20:01:15.015Z,61.12
2022-11-06T20:03:47.799Z,60.59
2022-11-06T20:06:19.850Z,60.33
2022-11-06T20:08:52.514Z,60.46
2022-11-06T20:11:26.325Z,60.47
2022-11-06T20:13:58.321Z,60.74
2022-11-06T20:16:30.551Z,60.78
2022-11-06T20:19:02.469Z,60.42
2022-11-06T20:21:34.705Z,60.30
2022-11-06T20:24:09.154Z,60.50
2022-11-06T20:26:41.565Z,60.33
2022-11-06T20:29:13.561Z,60.35
2022-11-06T20:31:45.780Z,60.08
2022-11-06T20:34:19.570Z,60.42
2022-11-06T20:36:51.898Z,60.43
2022-11-06T20:39:24.251Z,60.02
2022-11-06T20:41:56.484Z,59.10
2022-11-06T20:44:28.539Z,57.85
2022-11-06T20:47:00.654Z,59.01
2022-11-06T20:49:33.246Z,63.19
2022-11-06T20:52:14.422Z,65.86
2022-11-06T20:54:49.490Z,64.57
2022-11-06T20:57:22.063Z,62.78
2022-11-06T20:59:54.462Z,62.15
2022-11-06T21:02:26.613Z,61.93
2022-11-06T21:04:58.956Z,61.82
2022-11-06T21:07:33.351Z,61.64
2022-11-06T21:10:06.445Z,61.21
2022-11-06T21:12:39.780Z,61.31
2022-11-06T21:15:13.113Z,61.46
2022-11-06T21:17:45.666Z,61.51
2022-11-06T21:20:22.735Z,61.02
2022-11-06T21:22:55.272Z,60.50
2022-11-06T21:25:27.439Z,60.74
2022-11-06T21:27:59.550Z,61.14
2022-11-06T21:30:33.026Z,61.29
2022-11-06T21:33:05.470Z,61.20
2022-11-06T21:35:37.531Z,61.37
2022-11-06T21:38:09.908Z,61.28
2022-11-06T21:40:42.315Z,61.42
2022-11-06T21:43:14.901Z,61.29
2022-11-06T21:45:47.405Z,61.23
2022-11-06T21:48:32.776Z,61.13
2022-11-06T21:51:13.604Z,61.15
2022-11-06T21:54:03.811Z,61.04
2022-11-06T21:56:36.800Z,60.89
2022-11-06T21:59:11.618Z,60.22
2022-11-06T22:01:44.192Z,59.74
2022-11-06T22:04:16.210Z,60.01
2022-11-06T22:06:48.082Z,60.04
2022-11-06T22:09:25.226Z,60.25
2022-11-06T22:11:57.940Z,60.56
2022-11-06T22:14:29.955Z,60.67
2022-11-06T22:17:01.789Z,60.81
2022-11-06T22:19:33.631Z,61.32
2022-11-06T22:22:05.793Z,60.75
2022-11-06T22:25:19.607Z,60.76
2022-11-06T22:28:47.158Z,60.99
2022-11-06T22:31:19.228Z,60.82
2022-11-06T22:33:53.877Z,60.23
2022-11-06T22:36:26.584Z,60.17
2022-11-06T22:39:00.363Z,60.49
2022-11-06T22:41:32.290Z,60.60
2022-11-06T22:44:05.461Z,60.55
2022-11-06T22:46:38.007Z,60.62
2022-11-06T22:49:11.236Z,60.50
2022-11-06T22:51:43.364Z,60.12
2022-11-06T22:54:15.270Z,59.80
2022-11-06T22:56:47.545Z,59.79
2022-11-06T22:59:20.896Z,59.80
2022-11-06T23:01:53.470Z,60.01
2022-11-06T23:04:25.440Z,60.62
2022-11-06T23:06:57.222Z,60.30
2022-11-06T23:09:29.081Z,60.31
2022-11-06T23:12:01.458Z,61.12
2022-11-06T23:14:33.261Z,60.83
2022-11-06T23:17:05.060Z,61.34
2022-11-06T23:19:37.017Z,61.74
2022-11-06T23:22:26.576Z,61.80
2022-11-06T23:24:58.711Z,61.72
2022-11-06T23:27:30.720Z,61.83
2022-11-06T23:30:03.388Z,61.29
2022-11-06T23:32:37.466Z,61.31
2022-11-06T23:35:13.806Z,62.01
2022-11-06T23:37:47.257Z,61.57
2022-11-06T23:40:19.128Z,61.32
2022-11-06T23:42:54.828Z,61.02
2022-11-06T23:45:44.544Z,60.71
2022-11-06T23:48:18.166Z,61.19
2022-11-06T23:50:50.033Z,61.44
2022-11-06T23:53:22.151Z,61.42
2022-11-06T23:55:54.035Z,61.47
2022-11-06T23:58:26.120Z,61.70
